createdAt,value
2019-02-21T00:00:11.737Z,7.40
2019-02-21T00:02:41.718Z,7.40
2019-02-21T00:05:10.119Z,7.40
2019-02-21T00:07:38.526Z,7.40
2019-02-21T00:10:07.649Z,7.30
2019-02-21T00:12:37.797Z,7.30
2019-02-21T00:15:07.438Z,7.30
2019-02-21T00:17:37.465Z,7.30
2019-02-21T00:20:06.087Z,7.30
2019-02-21T00:22:37.602Z,7.20
2019-02-21T00:25:07.609Z,7.20
2019-02-21T00:27:35.993Z,7.30
2019-02-21T00:30:05.141Z,7.20
2019-02-21T00:32:33.563Z,7.20
2019-02-21T00:35:03.640Z,7.20
2019-02-21T00:37:32.029Z,7.20
2019-02-21T00:40:00.498Z,7.20
2019-02-21T00:42:28.875Z,7.20
2019-02-21T00:44:57.257Z,7.20
2019-02-21T00:47:25.635Z,7.20
2019-02-21T00:49:54.011Z,7.20
2019-02-21T00:52:22.438Z,7.20
2019-02-21T00:54:50.827Z,7.30
2019-02-21T00:57:19.191Z,7.20
2019-02-21T00:59:47.604Z,7.20
2019-02-21T01:02:15.985Z,7.30
2019-02-21T01:04:44.446Z,7.30
2019-02-21T01:07:12.807Z,7.30
2019-02-21T01:09:41.198Z,7.30
2019-02-21T01:12:09.597Z,7.30
2019-02-21T01:14:38.001Z,7.30
2019-02-21T01:17:06.431Z,7.30
2019-02-21T01:19:34.784Z,7.20
2019-02-21T01:22:03.986Z,7.20
2019-02-21T01:24:32.380Z,7.10
2019-02-21T01:27:00.743Z,7.10
2019-02-21T01:29:29.182Z,7.10
2019-02-21T01:31:57.579Z,7.10
2019-02-21T01:34:26.001Z,7.10
2019-02-21T01:36:54.350Z,7.10
2019-02-21T01:39:22.843Z,7.10
2019-02-21T01:41:51.227Z,7.20
2019-02-21T01:44:19.607Z,7.10
2019-02-21T01:46:48.018Z,7.10
2019-02-21T01:49:16.450Z,7.00
2019-02-21T01:51:44.914Z,7.10
2019-02-21T01:54:13.247Z,7.00
2019-02-21T01:56:41.724Z,7.00
2019-02-21T01:59:10.017Z,7.00
2019-02-21T02:01:38.418Z,7.00
2019-02-21T02:04:06.807Z,7.00
2019-02-21T02:06:35.226Z,7.00
2019-02-21T02:09:05.266Z,7.00
2019-02-21T02:11:33.707Z,7.00
2019-02-21T02:14:04.917Z,6.90
2019-02-21T02:16:33.417Z,6.90
2019-02-21T02:19:03.556Z,6.90
2019-02-21T02:21:31.927Z,6.90
2019-02-21T02:24:00.339Z,6.90
2019-02-21T02:26:28.718Z,6.90
2019-02-21T02:28:57.124Z,6.90
2019-02-21T02:31:25.512Z,6.90
2019-02-21T02:33:53.918Z,6.90
2019-02-21T02:36:22.307Z,6.90
2019-02-21T02:38:50.710Z,6.90
2019-02-21T02:41:19.129Z,6.90
2019-02-21T02:43:47.504Z,6.90
2019-02-21T02:46:15.916Z,6.90
2019-02-21T02:48:44.308Z,6.90
2019-02-21T02:51:12.672Z,6.90
2019-02-21T02:53:41.125Z,6.90
2019-02-21T02:56:09.463Z,6.90
2019-02-21T02:58:37.871Z,6.80
2019-02-21T03:01:09.125Z,6.90
2019-02-21T03:03:37.531Z,6.80
2019-02-21T03:06:05.945Z,6.80
2019-02-21T03:08:34.328Z,6.80
2019-02-21T03:11:02.734Z,6.80
2019-02-21T03:13:31.152Z,6.80
2019-02-21T03:16:01.151Z,6.80
2019-02-21T03:18:29.548Z,6.80
2019-02-21T03:20:57.959Z,6.80
2019-02-21T03:23:26.331Z,6.80
2019-02-21T03:25:54.739Z,6.70
2019-02-21T03:28:23.134Z,6.70
2019-02-21T03:30:51.621Z,6.70
2019-02-21T03:33:20.017Z,6.70
2019-02-21T03:35:48.392Z,6.60
2019-02-21T03:38:16.804Z,6.70
2019-02-21T03:40:45.205Z,6.70
2019-02-21T03:43:13.619Z,6.60
2019-02-21T03:45:42.008Z,6.60
2019-02-21T03:48:10.389Z,6.60
2019-02-21T03:50:38.764Z,6.60
2019-02-21T03:53:07.159Z,6.60
2019-02-21T03:55:35.557Z,6.60
2019-02-21T03:58:03.937Z,6.60
2019-02-21T04:00:32.332Z,6.60
2019-02-21T04:03:00.718Z,6.60
2019-02-21T04:05:29.115Z,6.50
2019-02-21T04:07:57.497Z,6.50
2019-02-21T04:10:25.893Z,6.50
2019-02-21T04:12:54.326Z,6.50
2019-02-21T04:15:22.681Z,6.40
2019-02-21T04:17:51.063Z,6.40
2019-02-21T04:20:19.443Z,6.40
2019-02-21T04:22:47.892Z,6.30
2019-02-21T04:25:16.263Z,6.40
2019-02-21T04:27:44.639Z,6.30
2019-02-21T04:30:13.057Z,6.40
2019-02-21T04:32:41.433Z,6.40
2019-02-21T04:35:09.835Z,6.30
2019-02-21T04:37:38.216Z,6.30
2019-02-21T04:40:07.108Z,6.30
2019-02-21T04:42:35.537Z,6.40
2019-02-21T04:45:04.314Z,6.40
2019-02-21T04:47:32.689Z,6.40
2019-02-21T04:50:01.103Z,6.40
2019-02-21T04:52:29.478Z,6.40
2019-02-21T04:54:57.878Z,6.40
2019-02-21T04:57:26.357Z,6.30
2019-02-21T04:59:54.735Z,6.30
2019-02-21T05:02:29.337Z,6.30
2019-02-21T05:04:53.289Z,6.30
2019-02-21T05:07:21.706Z,6.30
2019-02-21T05:09:57.869Z,6.20
2019-02-21T05:12:20.187Z,6.10
2019-02-21T05:14:48.641Z,6.10
2019-02-21T05:17:17.019Z,6.10
2019-02-21T05:19:45.427Z,6.00
2019-02-21T05:22:13.813Z,6.00
2019-02-21T05:24:42.318Z,6.00
2019-02-21T05:27:12.339Z,6.00
2019-02-21T05:29:40.740Z,6.00
2019-02-21T05:32:10.783Z,6.00
2019-02-21T05:34:59.218Z,5.90
2019-02-21T05:37:32.003Z,5.90
2019-02-21T05:40:18.298Z,5.80
2019-02-21T05:43:00.043Z,5.90
2019-02-21T05:45:39.023Z,5.80
2019-02-21T05:48:15.036Z,5.80
2019-02-21T05:50:45.056Z,5.80
2019-02-21T05:53:27.039Z,5.80
2019-02-21T05:55:57.233Z,5.80
2019-02-21T05:58:42.281Z,5.80
2019-02-21T06:01:27.348Z,5.70
2019-02-21T06:04:00.335Z,5.80
2019-02-21T06:06:30.385Z,5.80
2019-02-21T06:09:00.427Z,5.80
2019-02-21T06:11:45.468Z,5.80
2019-02-21T06:14:32.038Z,5.80
2019-02-21T06:17:10.642Z,5.80
2019-02-21T06:19:48.145Z,5.90
2019-02-21T06:22:33.492Z,5.90
2019-02-21T06:25:09.342Z,5.90
2019-02-21T06:27:42.340Z,5.90
2019-02-21T06:30:18.228Z,6.00
2019-02-21T06:32:46.609Z,6.00
2019-02-21T06:35:15.034Z,6.00
2019-02-21T06:37:43.412Z,6.00
2019-02-21T06:40:11.839Z,6.10
2019-02-21T06:42:40.220Z,6.10
2019-02-21T06:45:08.587Z,6.10
2019-02-21T06:47:37.003Z,6.10
2019-02-21T06:50:06.023Z,6.20
2019-02-21T06:52:34.472Z,6.20
2019-02-21T06:55:02.829Z,6.20
2019-02-21T06:57:31.214Z,6.30
2019-02-21T06:59:59.594Z,6.30
2019-02-21T07:02:28.292Z,6.40
2019-02-21T07:04:56.922Z,6.50
2019-02-21T07:07:25.428Z,6.50
2019-02-21T07:09:53.802Z,6.60
2019-02-21T07:12:22.242Z,6.70
2019-02-21T07:14:50.623Z,6.80
2019-02-21T07:17:19.000Z,6.80
2019-02-21T07:19:47.385Z,6.90
2019-02-21T07:22:18.070Z,6.90
2019-02-21T07:24:47.772Z,7.00
2019-02-21T07:27:16.126Z,7.00
2019-02-21T07:29:44.529Z,7.10
2019-02-21T07:32:12.949Z,7.10
2019-02-21T07:34:41.341Z,7.20
2019-02-21T07:37:18.045Z,7.30
2019-02-21T07:39:39.831Z,7.40
2019-02-21T07:42:08.243Z,7.40
2019-02-21T07:44:36.670Z,7.50
2019-02-21T07:47:05.047Z,7.60
2019-02-21T07:49:33.472Z,7.70
2019-02-21T07:52:01.839Z,7.80
2019-02-21T07:54:30.256Z,7.70
2019-02-21T07:56:58.635Z,7.90
2019-02-21T07:59:27.030Z,7.90
2019-02-21T08:01:55.429Z,8.00
2019-02-21T08:04:23.813Z,8.10
2019-02-21T08:06:55.291Z,7.90
2019-02-21T08:09:22.286Z,8.00
2019-02-21T08:11:50.680Z,8.00
2019-02-21T08:14:19.080Z,8.00
2019-02-21T08:16:47.485Z,8.10
2019-02-21T08:19:15.871Z,8.20
2019-02-21T08:21:44.316Z,8.30
2019-02-21T08:24:12.855Z,8.30
2019-02-21T08:26:41.259Z,8.30
2019-02-21T08:29:09.656Z,8.30
2019-02-21T08:31:38.067Z,8.30
2019-02-21T08:34:08.088Z,8.40
2019-02-21T08:36:36.519Z,8.60
2019-02-21T08:39:06.951Z,8.70
2019-02-21T08:41:35.337Z,8.80
2019-02-21T08:44:03.741Z,8.90
2019-02-21T08:46:32.123Z,8.80
2019-02-21T08:49:00.519Z,8.80
2019-02-21T08:51:29.018Z,8.80
2019-02-21T08:53:57.429Z,8.80
2019-02-21T08:56:25.808Z,8.90
2019-02-21T08:58:54.246Z,8.90
2019-02-21T09:01:22.595Z,8.90
2019-02-21T09:03:50.968Z,8.90
2019-02-21T09:06:19.380Z,8.90
2019-02-21T09:08:47.784Z,8.90
2019-02-21T09:11:16.184Z,9.00
2019-02-21T09:13:44.627Z,9.10
2019-02-21T09:16:13.079Z,9.10
2019-02-21T09:18:41.436Z,9.10
2019-02-21T09:21:09.853Z,9.10
2019-02-21T09:23:38.233Z,9.10
2019-02-21T09:26:06.640Z,9.20
2019-02-21T09:28:35.022Z,9.20
2019-02-21T09:31:03.438Z,9.30
2019-02-21T09:33:31.854Z,9.30
2019-02-21T09:36:00.231Z,9.40
2019-02-21T09:38:28.625Z,9.50
2019-02-21T09:40:57.017Z,9.50
2019-02-21T09:43:25.395Z,9.50
2019-02-21T09:45:54.094Z,9.50
2019-02-21T09:48:22.604Z,9.30
2019-02-21T09:50:50.980Z,9.40
2019-02-21T09:53:19.357Z,9.40
2019-02-21T09:55:50.199Z,9.50
2019-02-21T09:58:17.802Z,9.50
2019-02-21T10:00:46.209Z,9.50
2019-02-21T10:03:14.592Z,9.40
2019-02-21T10:05:43.019Z,9.50
2019-02-21T10:08:11.398Z,9.50
2019-02-21T10:10:39.771Z,9.50
2019-02-21T10:13:08.186Z,9.40
2019-02-21T10:15:37.476Z,9.50
2019-02-21T10:18:05.863Z,9.50
2019-02-21T10:20:34.257Z,9.50
2019-02-21T10:23:02.658Z,9.50
2019-02-21T10:25:31.888Z,9.40
2019-02-21T10:28:00.297Z,9.30
2019-02-21T10:30:28.713Z,9.20
2019-02-21T10:32:57.095Z,9.20
2019-02-21T10:35:25.506Z,9.20
2019-02-21T10:37:53.946Z,9.10
2019-02-21T10:40:22.323Z,9.10
2019-02-21T10:42:50.716Z,9.10
2019-02-21T10:45:20.675Z,9.00
2019-02-21T10:47:49.084Z,8.80
2019-02-21T10:50:20.602Z,8.70
2019-02-21T10:52:48.988Z,8.70
2019-02-21T10:55:17.922Z,8.70
2019-02-21T10:57:46.340Z,8.70
2019-02-21T11:00:23.619Z,8.80
2019-02-21T11:02:51.993Z,8.80
2019-02-21T11:05:20.460Z,8.80
2019-02-21T11:07:48.820Z,9.00
2019-02-21T11:10:25.424Z,9.00
2019-02-21T11:12:53.805Z,9.10
2019-02-21T11:15:24.051Z,9.10
2019-02-21T11:17:52.435Z,9.20
2019-02-21T11:20:21.679Z,9.30
2019-02-21T11:22:50.079Z,9.30
2019-02-21T11:25:18.464Z,9.20
2019-02-21T11:27:46.843Z,9.30
2019-02-21T11:30:19.651Z,9.40
2019-02-21T11:32:48.031Z,9.40
2019-02-21T11:35:16.476Z,9.40
2019-02-21T11:37:47.179Z,9.40
2019-02-21T11:40:16.306Z,9.40
2019-02-21T11:42:45.068Z,9.50
2019-02-21T11:45:17.784Z,9.50
2019-02-21T11:47:46.149Z,9.60
2019-02-21T11:50:18.419Z,9.80
2019-02-21T11:52:46.902Z,9.80
2019-02-21T11:55:23.675Z,9.80
2019-02-21T11:57:52.082Z,9.70
2019-02-21T12:00:23.893Z,9.70
2019-02-21T12:02:52.324Z,9.70
2019-02-21T12:05:30.545Z,9.70
2019-02-21T12:07:50.784Z,9.50
2019-02-21T12:10:19.173Z,9.50
2019-02-21T12:12:47.564Z,9.60
2019-02-21T12:15:16.693Z,9.60
2019-02-21T12:17:45.152Z,9.70
2019-02-21T12:20:15.250Z,9.80
2019-02-21T12:22:43.651Z,9.90
2019-02-21T12:25:14.326Z,10.00
2019-02-21T12:27:42.691Z,10.00
2019-02-21T12:30:16.144Z,10.00
2019-02-21T12:32:44.568Z,10.00
2019-02-21T12:35:13.053Z,9.90
2019-02-21T12:37:41.428Z,9.80
2019-02-21T12:40:12.949Z,9.70
2019-02-21T12:42:41.323Z,9.60
2019-02-21T12:45:12.347Z,9.60
2019-02-21T12:47:49.367Z,9.60
2019-02-21T12:50:13.487Z,9.50
2019-02-21T12:52:41.865Z,9.40
2019-02-21T12:55:11.322Z,9.20
2019-02-21T12:57:39.724Z,9.00
2019-02-21T13:00:16.864Z,8.90
2019-02-21T13:02:45.263Z,8.90
2019-02-21T13:05:13.662Z,8.80
2019-02-21T13:07:42.056Z,8.70
2019-02-21T13:10:13.313Z,8.70
2019-02-21T13:12:43.416Z,8.50
2019-02-21T13:15:13.491Z,8.40
2019-02-21T13:17:41.864Z,8.30
2019-02-21T13:20:11.673Z,8.10
2019-02-21T13:22:40.089Z,8.10
2019-02-21T13:25:11.060Z,8.00
2019-02-21T13:27:39.454Z,7.90
2019-02-21T13:30:12.880Z,7.90
2019-02-21T13:32:41.255Z,7.80
2019-02-21T13:35:10.600Z,7.90
2019-02-21T13:37:38.989Z,7.90
2019-02-21T13:40:12.896Z,7.90
2019-02-21T13:42:41.275Z,7.80
2019-02-21T13:45:11.759Z,7.80
2019-02-21T13:47:41.529Z,7.80
2019-02-21T13:50:12.351Z,7.70
2019-02-21T13:52:40.795Z,7.80
2019-02-21T13:55:09.209Z,7.80
2019-02-21T13:57:37.587Z,7.80
2019-02-21T14:00:11.777Z,7.70
2019-02-21T14:02:40.149Z,7.70
2019-02-21T14:05:08.583Z,7.80
2019-02-21T14:07:37.441Z,7.70
2019-02-21T14:10:08.762Z,7.60
2019-02-21T14:12:37.207Z,7.60
2019-02-21T14:15:08.932Z,7.70
2019-02-21T14:17:37.307Z,7.60
2019-02-21T14:20:07.699Z,7.60
2019-02-21T14:22:44.280Z,7.60
2019-02-21T14:25:12.755Z,7.60
2019-02-21T14:27:41.135Z,7.60
2019-02-21T14:30:14.944Z,7.60
2019-02-21T14:32:43.316Z,7.50
2019-02-21T14:35:14.462Z,7.50
2019-02-21T14:37:42.869Z,7.40
2019-02-21T14:40:12.623Z,7.30
2019-02-21T14:42:41.011Z,7.20
2019-02-21T14:45:20.243Z,7.20
2019-02-21T14:47:48.638Z,7.10
2019-02-21T14:50:17.068Z,7.10
2019-02-21T14:52:45.500Z,7.10
2019-02-21T14:55:16.386Z,7.10
2019-02-21T14:57:44.779Z,7.10
2019-02-21T15:00:22.479Z,7.10
2019-02-21T15:02:50.947Z,7.20
2019-02-21T15:05:19.940Z,7.20
2019-02-21T15:07:48.417Z,7.20
2019-02-21T15:10:35.384Z,7.10
2019-02-21T15:13:03.819Z,7.10
2019-02-21T15:15:32.206Z,7.20
2019-02-21T15:18:07.530Z,7.20
2019-02-21T15:20:36.952Z,7.20
2019-02-21T15:23:00.700Z,7.20
2019-02-21T15:25:29.093Z,7.20
2019-02-21T15:27:57.507Z,7.20
2019-02-21T15:30:26.270Z,7.20
2019-02-21T15:32:54.650Z,7.20
2019-02-21T15:35:23.106Z,7.20
2019-02-21T15:37:51.482Z,7.30
2019-02-21T15:40:21.316Z,7.30
2019-02-21T15:42:52.746Z,7.30
2019-02-21T15:45:24.198Z,7.30
2019-02-21T15:47:52.941Z,7.30
2019-02-21T15:50:21.359Z,7.30
2019-02-21T15:52:52.578Z,7.30
2019-02-21T15:55:21.867Z,7.40
2019-02-21T15:57:50.343Z,7.40
2019-02-21T16:00:20.215Z,7.30
2019-02-21T16:02:48.624Z,7.30
2019-02-21T16:05:18.675Z,7.30
2019-02-21T16:07:47.049Z,7.30
2019-02-21T16:10:21.203Z,7.30
2019-02-21T16:12:50.158Z,7.30
2019-02-21T16:15:19.348Z,7.30
2019-02-21T16:17:47.706Z,7.30
2019-02-21T16:20:17.447Z,7.30
2019-02-21T16:22:45.860Z,7.40
2019-02-21T16:25:22.467Z,7.30
2019-02-21T16:27:50.835Z,7.40
2019-02-21T16:30:21.909Z,7.30
2019-02-21T16:32:49.316Z,7.30
2019-02-21T16:35:17.711Z,7.40
2019-02-21T16:37:46.122Z,7.40
2019-02-21T16:40:16.907Z,7.30
2019-02-21T16:42:45.336Z,7.30
2019-02-21T16:45:22.224Z,7.30
2019-02-21T16:47:50.910Z,7.40
2019-02-21T16:50:29.449Z,7.40
2019-02-21T16:52:49.397Z,7.40
2019-02-21T16:55:20.106Z,7.40
2019-02-21T16:57:48.563Z,7.40
2019-02-21T17:00:19.164Z,7.40
2019-02-21T17:02:47.549Z,7.40
2019-02-21T17:05:16.280Z,7.40
2019-02-21T17:07:44.651Z,7.40
2019-02-21T17:10:16.476Z,7.40
2019-02-21T17:12:44.965Z,7.40
2019-02-21T17:15:14.555Z,7.50
2019-02-21T17:17:42.933Z,7.40
2019-02-21T17:20:13.957Z,7.50
2019-02-21T17:22:42.472Z,7.40
2019-02-21T17:25:13.249Z,7.50
2019-02-21T17:27:41.596Z,7.40
2019-02-21T17:30:12.914Z,7.50
2019-02-21T17:32:42.974Z,7.50
2019-02-21T17:35:11.362Z,7.50
2019-02-21T17:37:39.817Z,7.50
2019-02-21T17:40:21.725Z,7.50
2019-02-21T17:42:50.816Z,7.50
2019-02-21T17:45:19.479Z,7.50
2019-02-21T17:47:47.838Z,7.50
2019-02-21T17:50:19.964Z,7.50
2019-02-21T17:52:48.356Z,7.50
2019-02-21T17:55:17.317Z,7.60
2019-02-21T17:57:45.753Z,7.60
2019-02-21T18:00:20.980Z,7.60
2019-02-21T18:02:50.708Z,7.60
2019-02-21T18:05:19.071Z,7.60
2019-02-21T18:07:47.429Z,7.60
2019-02-21T18:10:16.890Z,7.60
2019-02-21T18:12:45.273Z,7.60
2019-02-21T18:15:14.992Z,7.60
2019-02-21T18:17:43.481Z,7.60
2019-02-21T18:20:13.322Z,7.60
2019-02-21T18:22:41.751Z,7.60
2019-02-21T18:25:22.540Z,7.60
2019-02-21T18:27:52.170Z,7.60
2019-02-21T18:30:20.507Z,7.70
2019-02-21T18:32:48.896Z,7.70
2019-02-21T18:35:17.310Z,7.70
2019-02-21T18:37:47.732Z,7.80
2019-02-21T18:40:21.158Z,7.80
2019-02-21T18:42:49.683Z,7.80
2019-02-21T18:45:18.207Z,7.80
2019-02-21T18:47:46.571Z,7.90
2019-02-21T18:50:15.050Z,7.90
2019-02-21T18:52:43.447Z,7.90
2019-02-21T18:55:11.852Z,7.90
2019-02-21T18:57:40.361Z,7.90
2019-02-21T19:00:26.015Z,7.90
2019-02-21T19:02:54.440Z,8.00
2019-02-21T19:05:22.804Z,8.00
2019-02-21T19:08:00.441Z,8.00
2019-02-21T19:10:22.360Z,8.00
2019-02-21T19:12:51.077Z,8.00
2019-02-21T19:15:20.407Z,8.10
2019-02-21T19:17:48.830Z,8.00
2019-02-21T19:20:18.839Z,8.10
2019-02-21T19:22:47.214Z,8.00
2019-02-21T19:25:15.607Z,8.00
2019-02-21T19:27:44.039Z,8.00
2019-02-21T19:30:15.825Z,8.00
2019-02-21T19:32:44.257Z,8.00
2019-02-21T19:35:12.622Z,8.00
2019-02-21T19:37:42.682Z,8.00
2019-02-21T19:40:11.217Z,8.00
2019-02-21T19:42:39.646Z,8.10
2019-02-21T19:45:08.989Z,8.00
2019-02-21T19:47:37.375Z,8.10
2019-02-21T19:50:08.145Z,8.00
2019-02-21T19:52:37.130Z,7.90
2019-02-21T19:55:10.013Z,7.90
2019-02-21T19:57:39.500Z,7.90
2019-02-21T20:00:22.708Z,8.00
2019-02-21T20:02:50.753Z,8.00
2019-02-21T20:05:19.370Z,8.00
2019-02-21T20:07:47.784Z,8.00
2019-02-21T20:10:16.252Z,8.00
2019-02-21T20:12:44.646Z,8.00
2019-02-21T20:15:13.128Z,8.00
2019-02-21T20:17:41.656Z,8.00
2019-02-21T20:20:16.080Z,8.00
2019-02-21T20:22:44.507Z,8.00
2019-02-21T20:25:12.916Z,8.00
2019-02-21T20:27:41.299Z,8.00
2019-02-21T20:30:12.848Z,8.00
2019-02-21T20:32:41.255Z,8.00
2019-02-21T20:35:09.674Z,7.90
2019-02-21T20:37:38.051Z,7.90
2019-02-21T20:40:08.684Z,7.90
2019-02-21T20:42:37.074Z,7.90
2019-02-21T20:45:15.358Z,7.90
2019-02-21T20:47:43.760Z,7.90
2019-02-21T20:50:12.594Z,8.00
2019-02-21T20:52:41.253Z,7.90
2019-02-21T20:55:10.995Z,7.80
2019-02-21T20:57:39.525Z,7.80
2019-02-21T21:00:11.074Z,7.70
2019-02-21T21:02:39.450Z,7.70
2019-02-21T21:05:07.858Z,7.60
2019-02-21T21:07:36.232Z,7.60
2019-02-21T21:10:11.353Z,7.50
2019-02-21T21:12:39.369Z,7.60
2019-02-21T21:15:10.319Z,7.50
2019-02-21T21:17:38.659Z,7.50
2019-02-21T21:20:16.353Z,7.50
2019-02-21T21:22:39.451Z,7.50
2019-02-21T21:25:13.266Z,7.50
2019-02-21T21:27:41.691Z,7.40
2019-02-21T21:30:15.660Z,7.40
2019-02-21T21:32:44.082Z,7.40
2019-02-21T21:35:12.458Z,7.50
2019-02-21T21:37:40.869Z,7.50
2019-02-21T21:40:16.852Z,7.40
2019-02-21T21:42:45.270Z,7.40
2019-02-21T21:45:15.618Z,7.40
2019-02-21T21:47:44.050Z,7.40
2019-02-21T21:50:16.906Z,7.40
2019-02-21T21:52:45.316Z,7.50
2019-02-21T21:55:13.799Z,7.40
2019-02-21T21:57:42.124Z,7.40
2019-02-21T22:00:24.058Z,7.40
2019-02-21T22:02:52.445Z,7.40
2019-02-21T22:05:20.850Z,7.40
2019-02-21T22:07:49.650Z,7.50
2019-02-21T22:10:18.418Z,7.40
2019-02-21T22:12:47.268Z,7.40
2019-02-21T22:15:23.658Z,7.50
2019-02-21T22:17:52.108Z,7.50
2019-02-21T22:20:20.551Z,7.50
2019-02-21T22:22:48.899Z,7.50
2019-02-21T22:25:17.297Z,7.50
2019-02-21T22:27:45.729Z,7.50
2019-02-21T22:30:18.607Z,7.50
2019-02-21T22:32:47.111Z,7.50
2019-02-21T22:35:17.475Z,7.50
2019-02-21T22:37:45.874Z,7.50
2019-02-21T22:40:18.162Z,7.50
2019-02-21T22:42:46.573Z,7.50
2019-02-21T22:45:15.000Z,7.50
2019-02-21T22:47:48.833Z,7.50
2019-02-21T22:50:18.820Z,7.60
2019-02-21T22:52:47.238Z,7.60
2019-02-21T22:55:15.605Z,7.60
2019-02-21T22:57:44.022Z,7.60
2019-02-21T23:00:31.996Z,7.60
2019-02-21T23:03:01.189Z,7.60
2019-02-21T23:05:58.934Z,7.60
2019-02-21T23:08:42.570Z,7.60
2019-02-21T23:11:11.145Z,7.50
2019-02-21T23:13:39.520Z,7.60
2019-02-21T23:16:07.905Z,7.60
2019-02-21T23:18:36.306Z,7.60
2019-02-21T23:21:04.781Z,7.60
2019-02-21T23:23:33.177Z,7.60
2019-02-21T23:26:01.573Z,7.60
2019-02-21T23:28:30.021Z,7.60
2019-02-21T23:30:58.452Z,7.60
2019-02-21T23:33:27.706Z,7.60
2019-02-21T23:35:56.087Z,7.60
2019-02-21T23:38:24.499Z,7.60
2019-02-21T23:40:52.919Z,7.60
2019-02-21T23:43:21.302Z,7.60
2019-02-21T23:45:49.688Z,7.60
2019-02-21T23:48:18.112Z,7.60
2019-02-21T23:50:46.495Z,7.60
2019-02-21T23:53:14.971Z,7.60
2019-02-21T23:55:43.351Z,7.70
2019-02-21T23:58:11.740Z,7.70
